sensor_id;sensor_type;location;lat;lon;timestamp;pressure;altitude;pressure_sealevel;temperature;humidity
19086;BME280;9675;51.538;6.728;2023-06-10T00:01:46;101081.69;;;25.38;46.44
19086;BME280;9675;51.538;6.728;2023-06-10T00:04:14;101072.03;;;25.34;46.53
19086;BME280;9675;51.538;6.728;2023-06-10T00:06:43;101072.06;;;25.31;46.53
19086;BME280;9675;51.538;6.728;2023-06-10T00:09:10;101069.47;;;25.28;46.49
19086;BME280;9675;51.538;6.728;2023-06-10T00:11:39;101072.97;;;25.25;46.71
19086;BME280;9675;51.538;6.728;2023-06-10T00:14:07;101071.25;;;25.21;46.70
19086;BME280;9675;51.538;6.728;2023-06-10T00:16:35;101065.16;;;25.15;46.97
19086;BME280;9675;51.538;6.728;2023-06-10T00:19:03;101071.28;;;25.15;46.96
19086;BME280;9675;51.538;6.728;2023-06-10T00:21:32;101072.22;;;25.13;47.13
19086;BME280;9675;51.538;6.728;2023-06-10T00:24:04;101070.44;;;25.09;47.02
19086;BME280;9675;51.538;6.728;2023-06-10T00:26:31;101070.47;;;25.04;47.32
19086;BME280;9675;51.538;6.728;2023-06-10T00:29:00;101071.38;;;25.00;47.45
19086;BME280;9675;51.538;6.728;2023-06-10T00:31:27;101078.44;;;24.96;47.31
19086;BME280;9675;51.538;6.728;2023-06-10T00:33:54;101072.28;;;24.93;47.33
19086;BME280;9675;51.538;6.728;2023-06-10T00:36:21;101073.22;;;24.90;47.52
19086;BME280;9675;51.538;6.728;2023-06-10T00:38:48;101077.59;;;24.87;47.61
19086;BME280;9675;51.538;6.728;2023-06-10T00:41:15;101073.19;;;24.84;47.73
19086;BME280;9675;51.538;6.728;2023-06-10T00:43:42;101074.09;;;24.80;47.83
19086;BME280;9675;51.538;6.728;2023-06-10T00:46:12;101078.50;;;24.78;47.54
19086;BME280;9675;51.538;6.728;2023-06-10T00:48:40;101084.66;;;24.74;47.73
19086;BME280;9675;51.538;6.728;2023-06-10T00:51:08;101082.94;;;24.70;48.10
19086;BME280;9675;51.538;6.728;2023-06-10T00:53:36;101083.81;;;24.68;47.90
19086;BME280;9675;51.538;6.728;2023-06-10T00:56:06;101083.84;;;24.65;47.88
19086;BME280;9675;51.538;6.728;2023-06-10T00:58:33;101074.16;;;24.62;48.25
19086;BME280;9675;51.538;6.728;2023-06-10T01:01:00;101077.72;;;24.58;48.16
19086;BME280;9675;51.538;6.728;2023-06-10T01:03:31;101075.09;;;24.55;48.40
19086;BME280;9675;51.538;6.728;2023-06-10T01:06:18;101074.22;;;24.51;48.36
19086;BME280;9675;51.538;6.728;2023-06-10T01:08:55;101081.25;;;24.46;48.79
19086;BME280;9675;51.538;6.728;2023-06-10T01:11:32;101078.66;;;24.43;48.70
19086;BME280;9675;51.538;6.728;2023-06-10T01:14:04;101080.38;;;24.41;48.84
19086;BME280;9675;51.538;6.728;2023-06-10T01:16:34;101088.31;;;24.38;49.13
19086;BME280;9675;51.538;6.728;2023-06-10T01:19:03;101080.41;;;24.37;49.22
19086;BME280;9675;51.538;6.728;2023-06-10T01:21:31;101083.06;;;24.32;49.07
19086;BME280;9675;51.538;6.728;2023-06-10T01:23:59;101092.69;;;24.30;49.20
19086;BME280;9675;51.538;6.728;2023-06-10T01:26:31;101086.59;;;24.27;49.59
19086;BME280;9675;51.538;6.728;2023-06-10T01:29:07;101091.00;;;24.25;49.43
19086;BME280;9675;51.538;6.728;2023-06-10T01:31:44;101090.09;;;24.23;49.45
19086;BME280;9675;51.538;6.728;2023-06-10T01:34:18;101092.75;;;24.18;49.99
19086;BME280;9675;51.538;6.728;2023-06-10T01:36:48;101083.06;;;24.12;49.91
19086;BME280;9675;51.538;6.728;2023-06-10T01:39:18;101077.81;;;24.09;49.93
19086;BME280;9675;51.538;6.728;2023-06-10T01:41:48;101090.09;;;24.07;50.25
19086;BME280;9675;51.538;6.728;2023-06-10T01:44:19;101083.09;;;24.03;50.15
19086;BME280;9675;51.538;6.728;2023-06-10T01:46:46;101086.59;;;24.01;50.20
19086;BME280;9675;51.538;6.728;2023-06-10T01:49:13;101086.63;;;23.98;50.24
19086;BME280;9675;51.538;6.728;2023-06-10T01:51:40;101090.13;;;23.95;50.58
19086;BME280;9675;51.538;6.728;2023-06-10T01:54:08;101090.13;;;23.92;50.70
19086;BME280;9675;51.538;6.728;2023-06-10T01:56:36;101081.38;;;23.87;50.71
19086;BME280;9675;51.538;6.728;2023-06-10T01:59:03;101083.09;;;23.85;51.23
19086;BME280;9675;51.538;6.728;2023-06-10T02:01:30;101081.38;;;23.81;51.00
19086;BME280;9675;51.538;6.728;2023-06-10T02:04:05;101090.16;;;23.77;51.02
19086;BME280;9675;51.538;6.728;2023-06-10T02:06:32;101091.88;;;23.75;51.15
19086;BME280;9675;51.538;6.728;2023-06-10T02:09:00;101085.75;;;23.71;51.20
19086;BME280;9675;51.538;6.728;2023-06-10T02:11:28;101086.63;;;23.69;51.48
19086;BME280;9675;51.538;6.728;2023-06-10T02:13:56;101094.53;;;23.66;51.44
19086;BME280;9675;51.538;6.728;2023-06-10T02:16:23;101089.25;;;23.63;51.84
19086;BME280;9675;51.538;6.728;2023-06-10T02:18:50;101090.13;;;23.60;51.90
19086;BME280;9675;51.538;6.728;2023-06-10T02:21:17;101095.38;;;23.59;51.83
19086;BME280;9675;51.538;6.728;2023-06-10T02:23:44;101105.91;;;23.56;51.99
19086;BME280;9675;51.538;6.728;2023-06-10T02:26:11;101105.00;;;23.52;51.99
19086;BME280;9675;51.538;6.728;2023-06-10T02:28:42;101096.25;;;23.49;52.03
19086;BME280;9675;51.538;6.728;2023-06-10T02:31:09;101101.53;;;23.46;51.83
19086;BME280;9675;51.538;6.728;2023-06-10T02:33:37;101099.72;;;23.43;52.11
19086;BME280;9675;51.538;6.728;2023-06-10T02:36:06;101095.34;;;23.39;52.26
19086;BME280;9675;51.538;6.728;2023-06-10T02:38:33;101097.09;;;23.36;52.18
19086;BME280;9675;51.538;6.728;2023-06-10T02:41:00;101096.22;;;23.34;52.59
19086;BME280;9675;51.538;6.728;2023-06-10T02:43:27;101092.69;;;23.28;52.53
19086;BME280;9675;51.538;6.728;2023-06-10T02:45:56;101085.69;;;23.26;52.81
19086;BME280;9675;51.538;6.728;2023-06-10T02:48:24;101095.31;;;23.22;52.84
19086;BME280;9675;51.538;6.728;2023-06-10T02:50:51;101093.53;;;23.21;52.87
19086;BME280;9675;51.538;6.728;2023-06-10T02:53:18;101092.66;;;23.16;53.17
19086;BME280;9675;51.538;6.728;2023-06-10T02:55:45;101091.81;;;23.14;53.18
19086;BME280;9675;51.538;6.728;2023-06-10T02:58:12;101097.94;;;23.10;53.15
19086;BME280;9675;51.538;6.728;2023-06-10T03:00:39;101091.75;;;23.07;53.35
19086;BME280;9675;51.538;6.728;2023-06-10T03:03:08;101095.28;;;23.04;53.51
19086;BME280;9675;51.538;6.728;2023-06-10T03:05:36;101101.38;;;23.02;53.56
19086;BME280;9675;51.538;6.728;2023-06-10T03:08:03;101093.53;;;23.00;53.41
19086;BME280;9675;51.538;6.728;2023-06-10T03:10:30;101090.00;;;22.98;53.43
19086;BME280;9675;51.538;6.728;2023-06-10T03:12:58;101094.38;;;22.95;53.71
19086;BME280;9675;51.538;6.728;2023-06-10T03:15:25;101090.84;;;22.90;53.86
19086;BME280;9675;51.538;6.728;2023-06-10T03:17:54;101094.34;;;22.88;53.74
19086;BME280;9675;51.538;6.728;2023-06-10T03:20:23;101100.47;;;22.86;53.78
19086;BME280;9675;51.538;6.728;2023-06-10T03:22:51;101098.69;;;22.82;54.12
19086;BME280;9675;51.538;6.728;2023-06-10T03:25:18;101104.84;;;22.79;53.94
19086;BME280;9675;51.538;6.728;2023-06-10T03:27:46;101100.41;;;22.75;54.43
19086;BME280;9675;51.538;6.728;2023-06-10T03:30:14;101112.66;;;22.75;54.23
19086;BME280;9675;51.538;6.728;2023-06-10T03:32:41;101115.28;;;22.72;54.19
19086;BME280;9675;51.538;6.728;2023-06-10T03:35:08;101114.34;;;22.67;54.33
19086;BME280;9675;51.538;6.728;2023-06-10T03:37:37;101110.84;;;22.63;54.46
19086;BME280;9675;51.538;6.728;2023-06-10T03:40:06;101121.34;;;22.62;54.23
19086;BME280;9675;51.538;6.728;2023-06-10T03:42:34;101126.56;;;22.60;54.31
19086;BME280;9675;51.538;6.728;2023-06-10T03:45:01;101120.44;;;22.57;54.43
19086;BME280;9675;51.538;6.728;2023-06-10T03:47:33;101120.44;;;22.54;54.63
19086;BME280;9675;51.538;6.728;2023-06-10T03:50:02;101123.91;;;22.51;54.53
19086;BME280;9675;51.538;6.728;2023-06-10T03:52:29;101124.78;;;22.49;54.68
19086;BME280;9675;51.538;6.728;2023-06-10T03:54:57;101130.00;;;22.45;54.59
19086;BME280;9675;51.538;6.728;2023-06-10T03:57:25;101125.63;;;22.43;54.64
19086;BME280;9675;51.538;6.728;2023-06-10T03:59:52;101126.47;;;22.40;54.51
19086;BME280;9675;51.538;6.728;2023-06-10T04:02:19;101129.09;;;22.37;54.89
19086;BME280;9675;51.538;6.728;2023-06-10T04:04:47;101127.28;;;22.33;54.85
19086;BME280;9675;51.538;6.728;2023-06-10T04:07:14;101129.91;;;22.30;54.89
19086;BME280;9675;51.538;6.728;2023-06-10T04:09:41;101122.91;;;22.29;55.09
19086;BME280;9675;51.538;6.728;2023-06-10T04:12:10;101130.75;;;22.26;55.06
19086;BME280;9675;51.538;6.728;2023-06-10T04:14:37;101135.09;;;22.24;54.93
19086;BME280;9675;51.538;6.728;2023-06-10T04:17:05;101136.84;;;22.21;55.32
19086;BME280;9675;51.538;6.728;2023-06-10T04:19:33;101135.97;;;22.17;55.23
19086;BME280;9675;51.538;6.728;2023-06-10T04:22:01;101129.81;;;22.15;55.27
19086;BME280;9675;51.538;6.728;2023-06-10T04:24:29;101128.03;;;22.14;55.41
19086;BME280;9675;51.538;6.728;2023-06-10T04:26:56;101135.91;;;22.11;55.20
19086;BME280;9675;51.538;6.728;2023-06-10T04:29:25;101144.63;;;22.09;55.19
19086;BME280;9675;51.538;6.728;2023-06-10T04:31:52;101140.25;;;22.06;55.21
19086;BME280;9675;51.538;6.728;2023-06-10T04:34:19;101145.47;;;22.04;55.33
19086;BME280;9675;51.538;6.728;2023-06-10T04:36:46;101148.06;;;22.00;55.38
19086;BME280;9675;51.538;6.728;2023-06-10T04:39:13;101144.56;;;21.99;55.33
19086;BME280;9675;51.538;6.728;2023-06-10T04:41:42;101147.16;;;21.98;55.37
19086;BME280;9675;51.538;6.728;2023-06-10T04:44:09;101149.75;;;21.95;55.52
19086;BME280;9675;51.538;6.728;2023-06-10T04:46:38;101149.69;;;21.92;55.51
19086;BME280;9675;51.538;6.728;2023-06-10T04:49:06;101150.56;;;21.89;55.27
19086;BME280;9675;51.538;6.728;2023-06-10T04:51:33;101147.06;;;21.90;55.50
19086;BME280;9675;51.538;6.728;2023-06-10T04:54:00;101148.78;;;21.87;55.52
19086;BME280;9675;51.538;6.728;2023-06-10T04:56:29;101148.75;;;21.84;55.67
19086;BME280;9675;51.538;6.728;2023-06-10T04:58:56;101154.88;;;21.81;55.54
19086;BME280;9675;51.538;6.728;2023-06-10T05:01:23;101144.38;;;21.80;55.54
19086;BME280;9675;51.538;6.728;2023-06-10T05:03:52;101150.47;;;21.79;55.60
19086;BME280;9675;51.538;6.728;2023-06-10T05:06:19;101152.19;;;21.77;55.79
19086;BME280;9675;51.538;6.728;2023-06-10T05:08:46;101148.69;;;21.75;55.79
19086;BME280;9675;51.538;6.728;2023-06-10T05:11:13;101150.41;;;21.73;55.80
19086;BME280;9675;51.538;6.728;2023-06-10T05:13:42;101155.63;;;21.70;55.94
19086;BME280;9675;51.538;6.728;2023-06-10T05:16:09;101155.63;;;21.70;55.70
19086;BME280;9675;51.538;6.728;2023-06-10T05:18:36;101152.13;;;21.69;55.83
19086;BME280;9675;51.538;6.728;2023-06-10T05:21:05;101159.97;;;21.68;55.77
19086;BME280;9675;51.538;6.728;2023-06-10T05:23:32;101154.72;;;21.65;55.72
19086;BME280;9675;51.538;6.728;2023-06-10T05:25:59;101159.09;;;21.66;55.63
19086;BME280;9675;51.538;6.728;2023-06-10T05:28:26;101157.34;;;21.65;55.91
19086;BME280;9675;51.538;6.728;2023-06-10T05:30:53;101151.19;;;21.62;55.87
19086;BME280;9675;51.538;6.728;2023-06-10T05:33:20;101150.31;;;21.60;55.99
19086;BME280;9675;51.538;6.728;2023-06-10T05:35:47;101155.56;;;21.60;55.90
19086;BME280;9675;51.538;6.728;2023-06-10T05:38:16;101163.38;;;21.59;55.65
19086;BME280;9675;51.538;6.728;2023-06-10T05:40:43;101160.75;;;21.57;56.05
19086;BME280;9675;51.538;6.728;2023-06-10T05:43:10;101164.25;;;21.58;55.90
19086;BME280;9675;51.538;6.728;2023-06-10T05:45:37;101165.09;;;21.57;55.92
19086;BME280;9675;51.538;6.728;2023-06-10T05:48:06;101170.34;;;21.57;56.06
19086;BME280;9675;51.538;6.728;2023-06-10T05:50:34;101165.13;;;21.58;56.12
19086;BME280;9675;51.538;6.728;2023-06-10T05:53:04;101162.50;;;21.58;56.03
19086;BME280;9675;51.538;6.728;2023-06-10T05:55:34;101164.25;;;21.58;55.93
19086;BME280;9675;51.538;6.728;2023-06-10T05:58:01;101167.75;;;21.58;55.82
19086;BME280;9675;51.538;6.728;2023-06-10T06:00:28;101165.13;;;21.58;55.83
19086;BME280;9675;51.538;6.728;2023-06-10T06:02:55;101164.28;;;21.59;55.77
19086;BME280;9675;51.538;6.728;2023-06-10T06:05:24;101167.78;;;21.61;55.65
19086;BME280;9675;51.538;6.728;2023-06-10T06:07:51;101159.06;;;21.64;55.66
19086;BME280;9675;51.538;6.728;2023-06-10T06:10:19;101163.47;;;21.65;55.76
19086;BME280;9675;51.538;6.728;2023-06-10T06:12:47;101159.09;;;21.67;55.54
19086;BME280;9675;51.538;6.728;2023-06-10T06:15:14;101165.25;;;21.69;55.54
19086;BME280;9675;51.538;6.728;2023-06-10T06:17:41;101174.84;;;21.72;55.49
19086;BME280;9675;51.538;6.728;2023-06-10T06:20:09;101164.38;;;21.72;55.30
19086;BME280;9675;51.538;6.728;2023-06-10T06:22:36;101160.06;;;21.75;55.33
19086;BME280;9675;51.538;6.728;2023-06-10T06:25:04;101167.06;;;21.78;55.44
19086;BME280;9675;51.538;6.728;2023-06-10T06:27:31;101162.72;;;21.80;55.40
19086;BME280;9675;51.538;6.728;2023-06-10T06:29:59;101161.84;;;21.82;55.28
19086;BME280;9675;51.538;6.728;2023-06-10T06:32:26;101178.50;;;21.86;55.16
19086;BME280;9675;51.538;6.728;2023-06-10T06:34:53;101175.91;;;21.89;55.00
19086;BME280;9675;51.538;6.728;2023-06-10T06:37:22;101174.16;;;21.92;54.88
19086;BME280;9675;51.538;6.728;2023-06-10T06:39:50;101168.13;;;21.95;54.83
19086;BME280;9675;51.538;6.728;2023-06-10T06:42:18;101173.38;;;21.98;54.83
19086;BME280;9675;51.538;6.728;2023-06-10T06:44:45;101171.66;;;22.00;54.42
19086;BME280;9675;51.538;6.728;2023-06-10T06:47:14;101171.72;;;22.06;54.47
19086;BME280;9675;51.538;6.728;2023-06-10T06:49:43;101173.50;;;22.10;54.36
19086;BME280;9675;51.538;6.728;2023-06-10T06:52:10;101180.50;;;22.14;54.18
19086;BME280;9675;51.538;6.728;2023-06-10T06:54:37;101179.69;;;22.20;54.26
19086;BME280;9675;51.538;6.728;2023-06-10T06:57:05;101184.94;;;22.23;53.91
19086;BME280;9675;51.538;6.728;2023-06-10T06:59:32;101177.13;;;22.27;53.90
19086;BME280;9675;51.538;6.728;2023-06-10T07:01:59;101183.28;;;22.34;54.01
19086;BME280;9675;51.538;6.728;2023-06-10T07:04:28;101188.56;;;22.38;53.70
19086;BME280;9675;51.538;6.728;2023-06-10T07:06:56;101188.63;;;22.43;53.88
19086;BME280;9675;51.538;6.728;2023-06-10T07:09:23;101192.13;;;22.50;53.48
19086;BME280;9675;51.538;6.728;2023-06-10T07:11:50;101188.66;;;22.55;53.43
19086;BME280;9675;51.538;6.728;2023-06-10T07:14:17;101191.34;;;22.63;53.11
19086;BME280;9675;51.538;6.728;2023-06-10T07:16:44;101189.63;;;22.68;53.04
19086;BME280;9675;51.538;6.728;2023-06-10T07:19:11;101187.94;;;22.73;52.69
19086;BME280;9675;51.538;6.728;2023-06-10T07:21:40;101186.22;;;22.78;52.64
19086;BME280;9675;51.538;6.728;2023-06-10T07:24:07;101188.88;;;22.85;52.47
19086;BME280;9675;51.538;6.728;2023-06-10T07:26:34;101194.19;;;22.90;52.13
19086;BME280;9675;51.538;6.728;2023-06-10T07:29:01;101187.19;;;22.97;52.01
19086;BME280;9675;51.538;6.728;2023-06-10T07:31:28;101184.59;;;23.04;51.92
19086;BME280;9675;51.538;6.728;2023-06-10T07:33:55;101177.59;;;23.12;51.98
19086;BME280;9675;51.538;6.728;2023-06-10T07:36:22;101172.38;;;23.21;51.86
19086;BME280;9675;51.538;6.728;2023-06-10T07:38:51;101182.06;;;23.30;51.88
19086;BME280;9675;51.538;6.728;2023-06-10T07:41:18;101178.56;;;23.37;51.77
19086;BME280;9675;51.538;6.728;2023-06-10T07:43:46;101179.44;;;23.42;51.55
19086;BME280;9675;51.538;6.728;2023-06-10T07:46:13;101177.78;;;23.52;51.58
19086;BME280;9675;51.538;6.728;2023-06-10T07:48:40;101182.16;;;23.60;51.56
19086;BME280;9675;51.538;6.728;2023-06-10T07:51:07;101182.16;;;23.68;51.66
19086;BME280;9675;51.538;6.728;2023-06-10T07:53:34;101178.69;;;23.75;51.21
19086;BME280;9675;51.538;6.728;2023-06-10T07:56:03;101176.06;;;23.83;51.05
19086;BME280;9675;51.538;6.728;2023-06-10T07:58:30;101177.81;;;23.91;51.28
19086;BME280;9675;51.538;6.728;2023-06-10T08:00:57;101176.94;;;24.01;51.06
19086;BME280;9675;51.538;6.728;2023-06-10T08:03:24;101172.53;;;24.09;50.88
19086;BME280;9675;51.538;6.728;2023-06-10T08:05:51;101172.59;;;24.19;50.46
19086;BME280;9675;51.538;6.728;2023-06-10T08:08:18;101176.09;;;24.30;50.63
19086;BME280;9675;51.538;6.728;2023-06-10T08:10:45;101180.47;;;24.40;50.49
19086;BME280;9675;51.538;6.728;2023-06-10T08:13:13;101171.66;;;24.50;50.52
19086;BME280;9675;51.538;6.728;2023-06-10T08:15:41;101180.41;;;24.60;50.36
19086;BME280;9675;51.538;6.728;2023-06-10T08:18:08;101178.63;;;24.68;50.41
19086;BME280;9675;51.538;6.728;2023-06-10T08:20:35;101184.75;;;24.73;50.07
19086;BME280;9675;51.538;6.728;2023-06-10T08:23:02;101179.47;;;24.80;50.11
19086;BME280;9675;51.538;6.728;2023-06-10T08:25:29;101183.00;;;24.88;50.19
19086;BME280;9675;51.538;6.728;2023-06-10T08:27:56;101182.94;;;24.97;50.49
19086;BME280;9675;51.538;6.728;2023-06-10T08:30:24;101184.69;;;25.08;50.04
19086;BME280;9675;51.538;6.728;2023-06-10T08:32:51;101182.00;;;25.17;50.05
19086;BME280;9675;51.538;6.728;2023-06-10T08:35:19;101181.06;;;25.25;49.96
19086;BME280;9675;51.538;6.728;2023-06-10T08:37:46;101188.06;;;25.37;49.66
19086;BME280;9675;51.538;6.728;2023-06-10T08:40:13;101189.75;;;25.47;49.84
19086;BME280;9675;51.538;6.728;2023-06-10T08:42:49;101192.34;;;25.58;49.54
19086;BME280;9675;51.538;6.728;2023-06-10T08:45:21;101186.13;;;25.68;49.47
19086;BME280;9675;51.538;6.728;2023-06-10T08:47:51;101195.75;;;25.79;49.58
19086;BME280;9675;51.538;6.728;2023-06-10T08:50:21;101188.63;;;25.86;49.25
19086;BME280;9675;51.538;6.728;2023-06-10T08:52:53;101192.09;;;25.94;48.99
19086;BME280;9675;51.538;6.728;2023-06-10T08:55:27;101194.66;;;26.05;48.77
19086;BME280;9675;51.538;6.728;2023-06-10T08:57:56;101185.75;;;26.16;48.52
19086;BME280;9675;51.538;6.728;2023-06-10T09:00:24;101190.94;;;26.27;48.75
19086;BME280;9675;51.538;6.728;2023-06-10T09:02:55;101185.59;;;26.36;48.41
19086;BME280;9675;51.538;6.728;2023-06-10T09:05:22;101189.03;;;26.44;48.26
19086;BME280;9675;51.538;6.728;2023-06-10T09:07:51;101189.84;;;26.51;48.17
19086;BME280;9675;51.538;6.728;2023-06-10T09:10:18;101186.28;;;26.58;48.20
19086;BME280;9675;51.538;6.728;2023-06-10T09:12:45;101180.00;;;26.67;47.90
19086;BME280;9675;51.538;6.728;2023-06-10T09:15:13;101180.75;;;26.78;47.58
19086;BME280;9675;51.538;6.728;2023-06-10T09:17:43;101184.19;;;26.87;47.41
19086;BME280;9675;51.538;6.728;2023-06-10T09:20:12;101185.84;;;26.97;47.39
19086;BME280;9675;51.538;6.728;2023-06-10T09:22:41;101171.59;;;27.08;47.06
19086;BME280;9675;51.538;6.728;2023-06-10T09:25:10;101181.16;;;27.19;47.20
19086;BME280;9675;51.538;6.728;2023-06-10T09:27:45;101177.50;;;27.29;46.91
19086;BME280;9675;51.538;6.728;2023-06-10T09:30:25;101167.59;;;27.42;46.50
19086;BME280;9675;51.538;6.728;2023-06-10T09:32:56;101172.75;;;27.56;46.54
19086;BME280;9675;51.538;6.728;2023-06-10T09:35:26;101168.19;;;27.65;46.14
19086;BME280;9675;51.538;6.728;2023-06-10T09:37:54;101170.66;;;27.76;46.04
19086;BME280;9675;51.538;6.728;2023-06-10T09:40:22;101169.66;;;27.83;45.98
19086;BME280;9675;51.538;6.728;2023-06-10T09:42:54;101177.41;;;27.95;45.62
19086;BME280;9675;51.538;6.728;2023-06-10T09:45:22;101177.19;;;28.07;45.63
19086;BME280;9675;51.538;6.728;2023-06-10T09:47:52;101174.41;;;28.18;45.43
19086;BME280;9675;51.538;6.728;2023-06-10T09:50:20;101174.25;;;28.25;43.32
19086;BME280;9675;51.538;6.728;2023-06-10T09:52:48;101166.13;;;28.36;42.58
19086;BME280;9675;51.538;6.728;2023-06-10T09:55:17;101179.34;;;28.38;42.48
19086;BME280;9675;51.538;6.728;2023-06-10T09:57:49;101159.84;;;28.42;42.71
19086;BME280;9675;51.538;6.728;2023-06-10T10:00:17;101152.56;;;28.53;42.53
19086;BME280;9675;51.538;6.728;2023-06-10T10:02:46;101164.72;;;28.63;42.83
19086;BME280;9675;51.538;6.728;2023-06-10T10:05:14;101169.81;;;28.75;42.81
19086;BME280;9675;51.538;6.728;2023-06-10T10:07:42;101163.47;;;28.84;42.89
19086;BME280;9675;51.538;6.728;2023-06-10T10:10:12;101154.47;;;28.91;42.14
19086;BME280;9675;51.538;6.728;2023-06-10T10:12:40;101153.31;;;29.04;41.88
19086;BME280;9675;51.538;6.728;2023-06-10T10:15:10;101160.09;;;29.17;42.20
19086;BME280;9675;51.538;6.728;2023-06-10T10:17:43;101157.19;;;29.28;41.74
19086;BME280;9675;51.538;6.728;2023-06-10T10:20:16;101153.38;;;29.42;41.26
19086;BME280;9675;51.538;6.728;2023-06-10T10:22:47;101146.06;;;29.52;40.99
19086;BME280;9675;51.538;6.728;2023-06-10T10:25:25;101150.25;;;29.62;41.06
19086;BME280;9675;51.538;6.728;2023-06-10T10:27:58;101151.69;;;29.75;41.47
19086;BME280;9675;51.538;6.728;2023-06-10T10:30:33;101153.13;;;29.88;41.17
19086;BME280;9675;51.538;6.728;2023-06-10T10:33:07;101161.81;;;29.96;41.36
19086;BME280;9675;51.538;6.728;2023-06-10T10:35:37;101149.28;;;30.02;40.12
19086;BME280;9675;51.538;6.728;2023-06-10T10:38:06;101150.88;;;30.09;40.31
19086;BME280;9675;51.538;6.728;2023-06-10T10:40:35;101155.94;;;30.18;40.03
19086;BME280;9675;51.538;6.728;2023-06-10T10:43:03;101147.59;;;30.31;39.65
19086;BME280;9675;51.538;6.728;2023-06-10T10:45:31;101139.25;;;30.45;39.75
19086;BME280;9675;51.538;6.728;2023-06-10T10:48:08;101141.69;;;30.54;39.24
19086;BME280;9675;51.538;6.728;2023-06-10T10:50:38;101145.84;;;30.64;39.42
19086;BME280;9675;51.538;6.728;2023-06-10T10:53:06;101145.63;;;30.72;39.17
19086;BME280;9675;51.538;6.728;2023-06-10T10:55:35;101127.69;;;30.78;38.89
19086;BME280;9675;51.538;6.728;2023-06-10T10:58:05;101126.63;;;30.84;38.63
19086;BME280;9675;51.538;6.728;2023-06-10T11:00:35;101140.53;;;30.94;38.92
19086;BME280;9675;51.538;6.728;2023-06-10T11:03:07;101134.06;;;31.04;38.39
19086;BME280;9675;51.538;6.728;2023-06-10T11:05:40;101126.72;;;31.12;37.91
19086;BME280;9675;51.538;6.728;2023-06-10T11:08:10;101125.63;;;31.19;37.76
19086;BME280;9675;51.538;6.728;2023-06-10T11:10:41;101128.00;;;31.28;37.70
19086;BME280;9675;51.538;6.728;2023-06-10T11:13:09;101118.84;;;31.37;37.49
19086;BME280;9675;51.538;6.728;2023-06-10T11:15:43;101115.06;;;31.44;37.55
19086;BME280;9675;51.538;6.728;2023-06-10T11:18:22;101119.22;;;31.52;37.84
19086;BME280;9675;51.538;6.728;2023-06-10T11:20:59;101125.22;;;31.60;36.77
19086;BME280;9675;51.538;6.728;2023-06-10T11:23:38;101114.34;;;31.67;37.02
19086;BME280;9675;51.538;6.728;2023-06-10T11:26:29;101113.03;;;31.80;36.40
19086;BME280;9675;51.538;6.728;2023-06-10T11:29:06;101123.50;;;31.84;36.46
19086;BME280;9675;51.538;6.728;2023-06-10T11:31:48;101118.94;;;31.88;35.88
19086;BME280;9675;51.538;6.728;2023-06-10T11:34:22;101113.25;;;31.98;35.85
19086;BME280;9675;51.538;6.728;2023-06-10T11:36:51;101119.00;;;32.13;36.31
19086;BME280;9675;51.538;6.728;2023-06-10T11:39:21;101110.75;;;32.20;36.02
19086;BME280;9675;51.538;6.728;2023-06-10T11:41:51;101106.88;;;32.29;35.63
19086;BME280;9675;51.538;6.728;2023-06-10T11:44:18;101095.84;;;32.15;32.11
19086;BME280;9675;51.538;6.728;2023-06-10T11:46:47;101103.81;;;32.15;33.09
19086;BME280;9675;51.538;6.728;2023-06-10T11:49:15;101106.13;;;32.25;33.46
19086;BME280;9675;51.538;6.728;2023-06-10T11:51:42;101101.38;;;32.33;33.10
19086;BME280;9675;51.538;6.728;2023-06-10T11:54:15;101103.31;;;32.28;33.33
19086;BME280;9675;51.538;6.728;2023-06-10T11:56:43;101088.84;;;32.35;33.71
19086;BME280;9675;51.538;6.728;2023-06-10T11:59:11;101105.03;;;32.54;33.00
19086;BME280;9675;51.538;6.728;2023-06-10T12:01:43;101104.00;;;32.83;32.77
19086;BME280;9675;51.538;6.728;2023-06-10T12:04:13;101103.03;;;33.52;33.23
19086;BME280;9675;51.538;6.728;2023-06-10T12:06:43;101107.09;;;34.25;31.39
19086;BME280;9675;51.538;6.728;2023-06-10T12:09:18;101093.84;;;34.81;31.71
19086;BME280;9675;51.538;6.728;2023-06-10T12:11:48;101085.16;;;35.32;31.37
19086;BME280;9675;51.538;6.728;2023-06-10T12:14:53;101090.22;;;35.74;30.78
19086;BME280;9675;51.538;6.728;2023-06-10T12:17:24;101086.97;;;35.85;30.20
19086;BME280;9675;51.538;6.728;2023-06-10T12:20:05;101077.09;;;36.02;30.22
19086;BME280;9675;51.538;6.728;2023-06-10T12:22:37;101078.34;;;36.12;30.20
19086;BME280;9675;51.538;6.728;2023-06-10T12:25:07;101074.69;;;36.15;29.85
19086;BME280;9675;51.538;6.728;2023-06-10T12:27:36;101074.19;;;36.24;29.49
19086;BME280;9675;51.538;6.728;2023-06-10T12:30:06;101070.47;;;36.27;29.52
19086;BME280;9675;51.538;6.728;2023-06-10T12:32:39;101078.19;;;36.33;28.72
19086;BME280;9675;51.538;6.728;2023-06-10T12:35:08;101064.97;;;36.45;28.30
19086;BME280;9675;51.538;6.728;2023-06-10T12:37:35;101072.09;;;36.46;28.79
19086;BME280;9675;51.538;6.728;2023-06-10T12:40:04;101075.03;;;36.42;29.31
19086;BME280;9675;51.538;6.728;2023-06-10T12:42:35;101061.16;;;36.49;29.28
19086;BME280;9675;51.538;6.728;2023-06-10T12:45:05;101073.03;;;36.63;28.55
19086;BME280;9675;51.538;6.728;2023-06-10T12:47:36;101062.09;;;36.66;28.28
19086;BME280;9675;51.538;6.728;2023-06-10T12:50:06;101055.00;;;36.65;28.01
19086;BME280;9675;51.538;6.728;2023-06-10T12:52:33;101067.28;;;36.69;28.41
19086;BME280;9675;51.538;6.728;2023-06-10T12:55:00;101061.69;;;36.73;27.91
19086;BME280;9675;51.538;6.728;2023-06-10T12:57:29;101064.72;;;36.83;27.44
19086;BME280;9675;51.538;6.728;2023-06-10T12:59:57;101066.28;;;36.87;27.63
19086;BME280;9675;51.538;6.728;2023-06-10T13:02:31;101065.41;;;36.86;27.94
19086;BME280;9675;51.538;6.728;2023-06-10T13:04:59;101074.94;;;36.92;27.77
19086;BME280;9675;51.538;6.728;2023-06-10T13:07:28;101069.91;;;36.86;27.65
19086;BME280;9675;51.538;6.728;2023-06-10T13:09:56;101064.19;;;36.92;28.20